Time;durP1;ratioP1;P1;durP2;ratioP2;P2;SDS_P1;SDS_P2;PMS_P1;PMS_P2;Temp;Humidity;BMP_temperature;BMP_pressure;BME280_temperature;BME280_humidity;BME280_pressure;Samples;Min_cycle;Max_cycle;Signal;HPM_P1;HPM_P2
2024/01/31 00:01:04;;;;;;;10.40;2.45;;;;;;;6.17;100.00;103316.69;5070993;28;20403;-74
2024/01/31 00:03:29;;;;;;;7.75;3.03;;;;;;;6.15;100.00;103330.03;5070822;28;20392;-74
2024/01/31 00:05:54;;;;;;;9.85;3.88;;;;;;;6.12;100.00;103327.59;5072131;28;20438;-74
2024/01/31 00:08:19;;;;;;;7.22;2.50;;;;;;;6.08;100.00;103314.69;5070637;28;20035;-74
2024/01/31 00:10:45;;;;;;;6.22;1.85;;;;;;;6.07;100.00;103315.63;5070527;28;20060;-74
2024/01/31 00:13:10;;;;;;;5.93;2.88;;;;;;;6.07;100.00;103319.13;5070645;28;20116;-74
2024/01/31 00:15:36;;;;;;;5.57;2.08;;;;;;;6.07;100.00;103326.22;5070673;28;20476;-73
2024/01/31 00:18:01;;;;;;;2.65;1.40;;;;;;;6.00;100.00;103323.16;5071874;28;20082;-73
2024/01/31 00:20:26;;;;;;;9.77;3.17;;;;;;;6.04;100.00;103331.75;5071874;28;20025;-74
2024/01/31 00:22:52;;;;;;;9.77;3.30;;;;;;;6.00;100.00;103323.16;5071798;28;20499;-73
2024/01/31 00:25:17;;;;;;;9.82;2.70;;;;;;;6.01;100.00;103326.66;5071640;28;20040;-73
2024/01/31 00:27:42;;;;;;;5.18;1.63;;;;;;;6.01;100.00;103329.31;5070666;28;20099;-73
2024/01/31 00:30:10;;;;;;;8.05;2.63;;;;;;;6.03;100.00;103343.31;5037037;28;20036;-73
2024/01/31 00:32:35;;;;;;;7.22;2.22;;;;;;;6.04;100.00;103345.84;5070376;28;20131;-73
2024/01/31 00:35:01;;;;;;;4.80;2.20;;;;;;;5.98;100.00;103343.63;5071682;28;20119;-73
2024/01/31 00:37:26;;;;;;;9.27;1.77;;;;;;;6.00;100.00;103357.59;5071461;28;20059;-73
2024/01/31 00:39:51;;;;;;;6.22;1.60;;;;;;;5.88;100.00;103338.06;5071338;28;20048;-73
2024/01/31 00:42:17;;;;;;;6.50;2.60;;;;;;;5.95;100.00;103354.44;5071358;28;20028;-73
2024/01/31 00:44:42;;;;;;;8.68;1.45;;;;;;;5.94;100.00;103363.31;5071089;28;20077;-73
2024/01/31 00:47:09;;;;;;;8.38;1.50;;;;;;;5.93;100.00;103366.88;5071329;28;20438;-73
2024/01/31 00:49:34;;;;;;;5.70;1.42;;;;;;;5.91;100.00;103364.31;5071086;28;20048;-73
2024/01/31 00:52:00;;;;;;;7.35;2.15;;;;;;;5.91;100.00;103372.28;5070019;28;20179;-73
2024/01/31 00:54:26;;;;;;;9.32;1.70;;;;;;;5.90;100.00;103367.09;5071098;28;20461;-73
2024/01/31 00:56:52;;;;;;;7.75;1.85;;;;;;;5.88;100.00;103366.34;5070993;28;20032;-73
2024/01/31 00:59:18;;;;;;;7.07;2.20;;;;;;;5.88;100.00;103363.69;5071051;28;20028;-73
2024/01/31 01:01:43;;;;;;;3.42;1.50;;;;;;;5.87;100.00;103367.31;5071081;28;20078;-73
2024/01/31 01:04:09;;;;;;;7.47;2.25;;;;;;;5.87;100.00;103365.50;5071032;28;20491;-73
2024/01/31 01:06:34;;;;;;;5.20;1.50;;;;;;;5.83;100.00;103366.66;5070886;28;20354;-73
2024/01/31 01:08:59;;;;;;;7.57;1.25;;;;;;;5.87;100.00;103368.16;5070650;28;20020;-73
2024/01/31 01:11:25;;;;;;;8.07;1.70;;;;;;;5.80;100.00;103366.00;5070690;28;20422;-73
2024/01/31 01:13:50;;;;;;;6.85;1.15;;;;;;;5.84;100.00;103378.97;5070857;28;20028;-73
2024/01/31 01:16:16;;;;;;;5.93;1.30;;;;;;;5.85;100.00;103382.44;5069450;28;20033;-73
2024/01/31 01:18:41;;;;;;;5.75;1.45;;;;;;;5.79;100.00;103380.19;5070646;28;20067;-73
2024/01/31 01:21:06;;;;;;;7.68;1.80;;;;;;;5.82;100.00;103380.84;5070767;28;20033;-73
2024/01/31 01:23:32;;;;;;;8.48;1.38;;;;;;;5.78;100.00;103376.69;5070465;28;20032;-73
2024/01/31 01:25:57;;;;;;;9.27;1.42;;;;;;;5.78;100.00;103382.00;5070568;28;20086;-73
2024/01/31 01:28:22;;;;;;;3.30;1.40;;;;;;;5.75;100.00;103376.06;5069092;28;20044;-73
2024/01/31 01:30:48;;;;;;;2.83;1.10;;;;;;;5.76;100.00;103375.09;5070383;28;20115;-82
2024/01/31 01:33:13;;;;;;;3.22;1.88;;;;;;;5.76;100.00;103388.34;5071708;28;20029;-82
2024/01/31 01:35:38;;;;;;;5.93;1.40;;;;;;;5.75;100.00;103376.91;5071502;28;20075;-82
2024/01/31 01:38:04;;;;;;;8.95;1.60;;;;;;;5.76;100.00;103389.19;5071421;28;20029;-82
2024/01/31 01:40:29;;;;;;;4.75;1.50;;;;;;;5.75;100.00;103387.50;5071483;28;20068;-82
2024/01/31 01:42:55;;;;;;;6.28;1.55;;;;;;;5.74;100.00;103384.94;5070331;28;20055;-82
2024/01/31 01:45:20;;;;;;;4.20;0.90;;;;;;;5.71;100.00;103380.69;5070240;28;20379;-82
2024/01/31 01:47:49;;;;;;;6.03;2.45;;;;;;;5.71;100.00;103386.88;5071371;28;20085;-82
2024/01/31 01:50:15;;;;;;;5.70;1.35;;;;;;;5.72;100.00;103385.06;5069474;28;20385;-82
2024/01/31 01:52:41;;;;;;;4.78;1.25;;;;;;;5.67;100.00;103371.28;5070927;28;20046;-82
2024/01/31 01:55:07;;;;;;;4.47;1.38;;;;;;;5.66;100.00;103369.59;5071106;28;20099;-82
2024/01/31 01:57:34;;;;;;;1.25;0.93;;;;;;;5.72;100.00;103377.13;5071033;28;20032;-82
2024/01/31 02:00:00;;;;;;;3.47;1.10;;;;;;;5.68;100.00;103371.16;5071202;28;20399;-82
2024/01/31 02:02:27;;;;;;;7.18;2.72;;;;;;;5.66;100.00;103375.72;5070016;28;20034;-82
2024/01/31 02:04:53;;;;;;;8.70;2.03;;;;;;;5.64;100.00;103376.78;5069859;28;20035;-82
2024/01/31 02:07:24;;;;;;;3.00;1.10;;;;;;;5.56;100.00;103361.41;5071192;28;20040;-82
2024/01/31 02:09:51;;;;;;;2.50;0.90;;;;;;;5.64;100.00;103380.28;5070896;28;20025;-82
2024/01/31 02:12:16;;;;;;;3.10;1.60;;;;;;;5.56;100.00;103365.84;5071140;28;20472;-82
2024/01/31 02:14:44;;;;;;;1.90;1.20;;;;;;;5.60;100.00;103368.19;5070965;28;20043;-82
2024/01/31 02:17:10;;;;;;;7.07;2.90;;;;;;;5.60;100.00;103372.63;5070882;28;20035;-82
2024/01/31 02:19:35;;;;;;;7.13;1.27;;;;;;;5.58;100.00;103370.09;5070937;28;20028;-82
2024/01/31 02:22:02;;;;;;;4.35;1.17;;;;;;;5.60;100.00;103372.63;5070528;28;20356;-81
2024/01/31 02:24:28;;;;;;;7.30;1.60;;;;;;;5.59;100.00;103377.09;5071035;28;20036;-82
2024/01/31 02:26:53;;;;;;;3.25;1.40;;;;;;;5.57;100.00;103364.91;5070804;28;20089;-82
2024/01/31 02:29:18;;;;;;;2.53;1.30;;;;;;;5.54;100.00;103352.72;5070890;28;20032;-82
2024/01/31 02:31:44;;;;;;;2.63;1.27;;;;;;;5.60;100.00;103367.34;5069603;28;20048;-82
2024/01/31 02:34:09;;;;;;;2.17;1.30;;;;;;;5.57;100.00;103360.44;5070863;28;20383;-82
2024/01/31 02:36:34;;;;;;;7.47;1.77;;;;;;;5.45;100.00;103354.19;5070710;28;20078;-82
2024/01/31 02:39:00;;;;;;;3.50;1.40;;;;;;;5.48;100.00;103359.25;5070721;28;20028;-82
2024/01/31 02:41:25;;;;;;;7.68;1.85;;;;;;;5.51;100.00;103368.81;5069603;28;20531;-82
2024/01/31 02:43:50;;;;;;;5.38;1.95;;;;;;;5.54;100.00;103371.25;5070910;28;20078;-82
2024/01/31 02:46:16;;;;;;;8.25;1.88;;;;;;;5.49;100.00;103368.88;5069602;28;20036;-82
2024/01/31 02:48:41;;;;;;;11.50;2.08;;;;;;;5.53;100.00;103373.97;5070479;28;20672;-82
2024/01/31 02:51:07;;;;;;;2.53;1.42;;;;;;;5.48;100.00;103363.72;5070644;28;20029;-82
2024/01/31 02:53:32;;;;;;;2.45;1.30;;;;;;;5.53;100.00;103372.19;5070759;28;20395;-83
2024/01/31 02:55:57;;;;;;;4.32;1.70;;;;;;;5.52;100.00;103373.13;5069383;28;20090;-82
2024/01/31 02:58:23;;;;;;;2.50;1.20;;;;;;;5.52;100.00;103370.47;5070705;28;20455;-81
2024/01/31 03:00:48;;;;;;;2.83;1.33;;;;;;;5.51;100.00;103365.31;5070712;28;20035;-82
2024/01/31 03:03:14;;;;;;;3.50;1.88;;;;;;;5.52;100.00;103367.84;5070611;28;20491;-82
2024/01/31 03:05:39;;;;;;;4.15;1.70;;;;;;;5.42;100.00;103340.28;5070575;28;20035;-82
2024/01/31 03:08:05;;;;;;;5.80;1.80;;;;;;;5.51;100.00;103365.31;5071745;28;20105;-82
2024/01/31 03:10:32;;;;;;;8.50;1.98;;;;;;;5.47;100.00;103351.41;5073159;28;20036;-82
2024/01/31 03:12:57;;;;;;;3.03;1.75;;;;;;;5.47;100.00;103357.56;5074004;28;20420;-73
2024/01/31 03:15:23;;;;;;;5.95;2.08;;;;;;;5.47;100.00;103351.41;5073102;28;20055;-73
2024/01/31 03:17:48;;;;;;;6.72;1.67;;;;;;;5.47;100.00;103352.25;5072982;28;20035;-73
2024/01/31 03:20:13;;;;;;;7.00;1.42;;;;;;;5.49;100.00;103357.47;5072866;28;20040;-73
2024/01/31 03:22:39;;;;;;;7.63;1.80;;;;;;;5.47;100.00;103357.56;5071745;28;20494;-73
2024/01/31 03:25:05;;;;;;;4.28;1.73;;;;;;;5.45;100.00;103348.03;5073018;28;20445;-73
2024/01/31 03:27:30;;;;;;;3.97;1.77;;;;;;;5.48;100.00;103342.53;5071411;28;20166;-73
2024/01/31 03:30:01;;;;;;;8.55;1.73;;;;;;;5.50;100.00;103340.63;5072727;28;20492;-73
2024/01/31 03:32:26;;;;;;;7.53;3.80;;;;;;;5.46;100.00;103341.78;5072744;28;20391;-74
2024/01/31 03:34:52;;;;;;;11.32;2.53;;;;;;;5.49;100.00;103349.53;5072740;28;20028;-73
2024/01/31 03:37:17;;;;;;;10.57;2.97;;;;;;;5.48;100.00;103340.75;5072632;28;20468;-73
2024/01/31 03:39:42;;;;;;;4.63;2.65;;;;;;;5.48;100.00;103339.91;5072410;28;20678;-73
2024/01/31 03:42:08;;;;;;;4.45;2.17;;;;;;;5.48;100.00;103337.25;5072572;28;20430;-73
2024/01/31 03:44:33;;;;;;;8.70;1.95;;;;;;;5.45;100.00;103333.00;5070988;28;20037;-73
2024/01/31 03:46:58;;;;;;;4.43;1.80;;;;;;;5.48;100.00;103337.25;5071165;28;20059;-73
2024/01/31 03:49:24;;;;;;;6.45;2.47;;;;;;;5.47;100.00;103322.28;5072078;28;20143;-73
2024/01/31 03:51:49;;;;;;;8.63;2.28;;;;;;;5.46;100.00;103323.25;5072426;28;20036;-73
2024/01/31 03:54:14;;;;;;;6.60;1.85;;;;;;;5.46;100.00;103324.09;5072293;28;20574;-73
2024/01/31 03:56:42;;;;;;;10.90;2.72;;;;;;;5.41;100.00;103312.97;5072042;28;20169;-73
2024/01/31 03:59:07;;;;;;;6.85;2.53;;;;;;;5.43;100.00;103315.53;5072184;28;20024;-73
2024/01/31 04:01:33;;;;;;;6.53;2.65;;;;;;;5.44;100.00;103322.50;5070720;28;20395;-73
2024/01/31 04:03:58;;;;;;;6.13;2.35;;;;;;;5.42;100.00;103324.41;5070900;28;20039;-73
2024/01/31 04:06:23;;;;;;;8.10;2.15;;;;;;;5.42;100.00;103319.09;5072075;28;20154;-73
2024/01/31 04:08:49;;;;;;;6.45;2.92;;;;;;;5.41;100.00;103312.13;5072183;28;20032;-73
2024/01/31 04:11:14;;;;;;;4.57;1.73;;;;;;;5.39;100.00;103321.97;5071953;28;20028;-73
2024/01/31 04:13:44;;;;;;;4.80;2.00;;;;;;;5.37;100.00;103314.16;5054065;28;20033;-73
2024/01/31 04:16:14;;;;;;;7.18;2.75;;;;;;;5.38;100.00;103313.19;5071904;28;20060;-73
2024/01/31 04:18:39;;;;;;;12.32;4.28;;;;;;;5.36;100.00;103314.22;5071056;28;20039;-73
2024/01/31 04:21:04;;;;;;;6.18;1.67;;;;;;;5.39;100.00;103308.72;5053661;28;20036;-73
2024/01/31 04:23:30;;;;;;;5.95;1.60;;;;;;;5.26;100.00;103291.00;5071708;28;20035;-73
2024/01/31 04:25:55;;;;;;;4.60;2.13;;;;;;;5.40;100.00;103307.81;5071607;28;20067;-73
2024/01/31 04:28:23;;;;;;;8.38;1.65;;;;;;;5.39;100.00;103314.03;5071679;28;20052;-73
2024/01/31 04:30:48;;;;;;;10.73;1.92;;;;;;;5.39;100.00;103314.88;5071348;28;20044;-73
2024/01/31 04:33:14;;;;;;;6.68;3.08;;;;;;;5.31;100.00;103296.00;5071654;28;20051;-73
2024/01/31 04:35:39;;;;;;;7.50;1.92;;;;;;;5.39;100.00;103311.38;5070238;28;20036;-73
2024/01/31 04:38:05;;;;;;;8.75;2.10;;;;;;;5.38;100.00;103307.88;5070175;28;20472;-73
2024/01/31 04:40:30;;;;;;;4.43;2.00;;;;;;;5.38;100.00;103307.03;5071381;28;20032;-73
2024/01/31 04:42:55;;;;;;;8.15;1.80;;;;;;;5.37;100.00;103311.50;5069996;28;20040;-73
2024/01/31 04:45:21;;;;;;;7.43;2.50;;;;;;;5.30;100.00;103306.72;5071263;28;20133;-73
2024/01/31 04:47:46;;;;;;;4.50;1.88;;;;;;;5.33;100.00;103312.63;5071454;28;20040;-73
2024/01/31 04:50:12;;;;;;;9.57;2.92;;;;;;;5.33;100.00;103307.34;5071282;28;20572;-73
2024/01/31 04:52:37;;;;;;;7.22;2.20;;;;;;;5.30;100.00;103314.66;5071255;28;20524;-73
2024/01/31 04:55:04;;;;;;;8.50;2.58;;;;;;;5.32;100.00;103316.25;5071218;28;20028;-73
2024/01/31 04:57:31;;;;;;;6.82;2.30;;;;;;;5.28;100.00;103315.56;5071605;28;20471;-73
2024/01/31 04:59:56;;;;;;;3.25;1.92;;;;;;;5.28;100.00;103312.94;5070769;28;20032;-73
2024/01/31 05:02:21;;;;;;;8.82;2.22;;;;;;;5.28;100.00;103310.28;5069630;28;20380;-73
2024/01/31 05:04:47;;;;;;;8.80;2.38;;;;;;;5.28;100.00;103304.16;5071045;28;20025;-73
2024/01/31 05:07:12;;;;;;;6.85;2.80;;;;;;;5.25;100.00;103299.06;5069578;28;20086;-73
2024/01/31 05:09:38;;;;;;;6.45;2.28;;;;;;;5.28;100.00;103309.44;5069629;28;20028;-73
2024/01/31 05:12:04;;;;;;;8.00;2.80;;;;;;;5.27;100.00;103313.06;5070676;28;20117;-73
2024/01/31 05:14:29;;;;;;;6.45;2.22;;;;;;;5.25;100.00;103315.78;5070654;28;20399;-73
2024/01/31 05:16:54;;;;;;;5.78;2.10;;;;;;;5.27;100.00;103305.13;5052646;28;21040;-73
2024/01/31 05:19:19;;;;;;;6.90;2.75;;;;;;;5.27;100.00;103313.91;5070593;28;20036;-73
2024/01/31 05:21:49;;;;;;;7.38;2.30;;;;;;;5.23;100.00;103306.25;5070586;28;20036;-73
2024/01/31 05:24:15;;;;;;;8.07;2.80;;;;;;;5.27;100.00;103310.41;5070695;28;20063;-73
2024/01/31 05:26:42;;;;;;;5.85;2.70;;;;;;;5.23;100.00;103303.59;5070370;28;20037;-73
2024/01/31 05:29:08;;;;;;;8.07;3.30;;;;;;;5.23;100.00;103306.25;5070488;28;20035;-73
2024/01/31 05:31:33;;;;;;;9.55;3.38;;;;;;;5.24;100.00;103300.88;5069463;28;20028;-73
2024/01/31 05:33:59;;;;;;;9.10;3.05;;;;;;;5.27;100.00;103303.31;5070520;28;20089;-74
2024/01/31 05:36:24;;;;;;;8.60;2.22;;;;;;;5.27;100.00;103307.75;5070431;28;20349;-73
2024/01/31 05:38:50;;;;;;;8.85;3.22;;;;;;;5.27;100.00;103307.75;5070120;28;20032;-73
2024/01/31 05:41:15;;;;;;;8.38;2.38;;;;;;;5.28;100.00;103310.28;5070111;28;20029;-73
2024/01/31 05:43:41;;;;;;;11.15;3.58;;;;;;;5.29;100.00;103308.47;5070156;28;20035;-73
2024/01/31 05:46:06;;;;;;;10.23;2.38;;;;;;;5.29;100.00;103308.47;5070244;28;20024;-73
2024/01/31 05:48:31;;;;;;;13.02;5.15;;;;;;;5.30;100.00;103309.34;5070058;28;20036;-74
2024/01/31 05:50:57;;;;;;;8.95;3.97;;;;;;;5.24;100.00;103300.88;5070130;28;20525;-73
2024/01/31 05:53:22;;;;;;;11.65;3.05;;;;;;;5.18;100.00;103298.59;5070014;28;20055;-73
2024/01/31 05:55:47;;;;;;;7.03;3.40;;;;;;;5.30;100.00;103310.19;5069779;28;20054;-73
2024/01/31 05:58:13;;;;;;;22.30;5.63;;;;;;;5.30;100.00;103304.91;5069710;28;20036;-73
2024/01/31 06:00:38;;;;;;;11.77;3.40;;;;;;;5.27;100.00;103305.13;5068346;28;20063;-74
2024/01/31 06:03:04;;;;;;;10.20;3.72;;;;;;;5.27;100.00;103305.13;5068583;28;20036;-73
2024/01/31 06:05:29;;;;;;;12.75;3.97;;;;;;;5.28;100.00;103315.56;5068700;28;20032;-74
2024/01/31 06:07:55;;;;;;;7.63;3.03;;;;;;;5.24;100.00;103303.53;5069682;28;20032;-73
2024/01/31 06:10:20;;;;;;;8.38;2.97;;;;;;;5.26;100.00;103312.19;5069698;28;20030;-73
2024/01/31 06:12:46;;;;;;;14.32;4.28;;;;;;;5.28;100.00;103310.28;5069574;28;20036;-74
2024/01/31 06:15:11;;;;;;;11.15;3.63;;;;;;;5.29;100.00;103316.41;5069709;28;20115;-73
2024/01/31 06:17:38;;;;;;;9.40;4.90;;;;;;;5.28;100.00;103312.94;5069719;28;20021;-73
2024/01/31 06:20:04;;;;;;;10.73;3.53;;;;;;;5.30;100.00;103306.72;5069526;28;20024;-73
2024/01/31 06:22:30;;;;;;;17.27;7.28;;;;;;;5.32;100.00;103315.38;5069674;28;20549;-73
2024/01/31 06:24:55;;;;;;;16.77;3.97;;;;;;;5.31;100.00;103300.47;5069517;28;20036;-73
2024/01/31 06:27:21;;;;;;;11.35;5.82;;;;;;;5.31;100.00;103289.88;5069866;28;20059;-73
2024/01/31 06:29:46;;;;;;;12.25;4.38;;;;;;;5.31;100.00;103287.22;5069568;28;20082;-73
2024/01/31 06:32:12;;;;;;;10.48;5.35;;;;;;;5.32;100.00;103281.84;5069608;28;20025;-74
2024/01/31 06:34:37;;;;;;;13.05;4.63;;;;;;;5.29;100.00;103279.38;5069578;28;20476;-73
2024/01/31 06:37:03;;;;;;;23.65;7.93;;;;;;;5.28;100.00;103278.53;5068030;28;20040;-73
2024/01/31 06:39:28;;;;;;;14.93;5.30;;;;;;;5.31;100.00;103282.78;5069449;28;20111;-73
2024/01/31 06:41:53;;;;;;;15.52;6.25;;;;;;;5.32;100.00;103278.31;5070712;28;20059;-74
2024/01/31 06:44:19;;;;;;;16.02;5.20;;;;;;;5.33;100.00;103272.09;5076213;28;20024;-73
2024/01/31 06:46:47;;;;;;;20.75;4.82;;;;;;;5.28;100.00;103257.38;5075964;28;20024;-73
2024/01/31 06:49:14;;;;;;;16.70;5.50;;;;;;;5.32;100.00;103262.44;5058076;28;20140;-73
2024/01/31 06:51:39;;;;;;;14.68;5.60;;;;;;;5.32;100.00;103250.09;5057955;28;20055;-73
2024/01/31 06:54:04;;;;;;;13.88;5.07;;;;;;;5.28;100.00;103245.94;5076035;28;20029;-73
2024/01/31 06:56:30;;;;;;;16.92;7.28;;;;;;;5.33;100.00;103253.59;5076006;28;20054;-73
2024/01/31 06:58:56;;;;;;;27.35;10.45;;;;;;;5.33;100.00;103261.53;5075868;28;20036;-73
2024/01/31 07:01:22;;;;;;;16.63;4.55;;;;;;;5.29;100.00;103258.22;5075817;28;20036;-73
2024/01/31 07:03:47;;;;;;;16.05;6.20;;;;;;;5.34;100.00;103257.91;5076078;28;20074;-73
2024/01/31 07:06:13;;;;;;;20.83;6.63;;;;;;;5.31;100.00;103256.31;5074529;28;20035;-73
2024/01/31 07:08:39;;;;;;;18.17;6.38;;;;;;;5.34;100.00;103271.97;5075915;28;20032;-73
2024/01/31 07:11:10;;;;;;;16.92;5.95;;;;;;;5.31;100.00;103292.53;5075628;28;20028;-73
2024/01/31 07:13:36;;;;;;;21.30;7.82;;;;;;;5.34;100.00;103309.03;5075930;28;20024;-73
2024/01/31 07:16:09;;;;;;;17.27;5.68;;;;;;;5.28;100.00;103305.00;5074646;28;20043;-73
2024/01/31 07:18:43;;;;;;;24.35;6.60;;;;;;;5.35;100.00;103331.06;5075821;28;20024;-74
2024/01/31 07:21:09;;;;;;;25.50;8.75;;;;;;;5.34;100.00;103329.34;5074472;28;20038;-74
2024/01/31 07:23:36;;;;;;;21.65;7.75;;;;;;;5.39;100.00;103349.28;5075842;28;20056;-74
2024/01/31 07:26:02;;;;;;;22.48;8.85;;;;;;;5.40;100.00;103348.34;5075257;28;20044;-74
2024/01/31 07:28:27;;;;;;;22.83;9.02;;;;;;;5.38;100.00;103352.03;5075933;28;20041;-72
2024/01/31 07:30:53;;;;;;;21.48;8.90;;;;;;;5.41;100.00;103346.53;5074394;28;20060;-73
2024/01/31 07:33:21;;;;;;;23.30;7.78;;;;;;;5.44;100.00;103356.91;5074012;28;20047;-72
2024/01/31 07:35:47;;;;;;;21.85;9.90;;;;;;;5.43;100.00;103361.38;5074740;28;20032;-73
2024/01/31 07:38:12;;;;;;;21.20;8.52;;;;;;;5.42;100.00;103354.38;5074818;28;20032;-72
2024/01/31 07:40:38;;;;;;;22.02;7.82;;;;;;;5.42;100.00;103358.81;5073519;28;20025;-72
2024/01/31 07:43:03;;;;;;;20.17;8.05;;;;;;;5.45;100.00;103364.75;5074664;28;20036;-72
2024/01/31 07:45:29;;;;;;;20.08;8.05;;;;;;;5.46;100.00;103362.97;5074739;28;20137;-72
2024/01/31 07:47:56;;;;;;;20.65;7.68;;;;;;;5.41;100.00;103355.31;5073658;28;20053;-73
2024/01/31 07:50:21;;;;;;;24.27;9.50;;;;;;;5.46;100.00;103363.81;5074833;28;20057;-73
2024/01/31 07:52:47;;;;;;;24.92;9.73;;;;;;;5.46;100.00;103374.38;5075173;28;20052;-73
2024/01/31 07:55:13;;;;;;;24.83;9.40;;;;;;;5.48;100.00;103367.19;5069093;28;20058;-73
2024/01/31 07:57:39;;;;;;;28.17;11.20;;;;;;;5.49;100.00;103365.41;5071402;28;20048;-74
2024/01/31 08:00:06;;;;;;;27.70;10.98;;;;;;;5.46;100.00;103360.31;5072004;28;20036;-73
2024/01/31 08:02:32;;;;;;;25.58;10.32;;;;;;;5.49;100.00;103374.19;5053160;28;20392;-73
2024/01/31 08:04:57;;;;;;;28.80;8.98;;;;;;;5.51;100.00;103368.81;5070346;28;20028;-74
2024/01/31 08:07:23;;;;;;;22.95;8.35;;;;;;;5.51;100.00;103373.25;5071695;28;20613;-74
2024/01/31 08:09:49;;;;;;;23.48;7.80;;;;;;;5.51;100.00;103366.16;5071757;28;20033;-74
2024/01/31 08:12:14;;;;;;;20.40;8.88;;;;;;;5.50;100.00;103372.38;5053554;28;20078;-74
2024/01/31 08:14:39;;;;;;;23.35;11.32;;;;;;;5.51;100.00;103367.97;5071707;28;20077;-73
2024/01/31 08:17:05;;;;;;;21.55;8.05;;;;;;;5.47;100.00;103348.75;5071360;28;20025;-74
2024/01/31 08:19:30;;;;;;;20.52;9.48;;;;;;;5.51;100.00;103339.69;5068900;28;20035;-73
2024/01/31 08:21:55;;;;;;;21.75;10.43;;;;;;;5.55;100.00;103338.50;5071512;28;20109;-73
2024/01/31 08:24:21;;;;;;;25.98;11.10;;;;;;;5.58;100.00;103354.22;5071783;28;20037;-73
2024/01/31 08:26:46;;;;;;;22.05;9.30;;;;;;;5.57;100.00;103343.72;5070037;28;20438;-73
2024/01/31 08:29:12;;;;;;;21.23;9.40;;;;;;;5.64;100.00;103360.91;5071506;28;20024;-73
2024/01/31 08:31:37;;;;;;;22.13;9.05;;;;;;;5.62;100.00;103342.47;5070995;28;20028;-72
2024/01/31 08:34:02;;;;;;;24.88;10.40;;;;;;;5.68;100.00;103349.97;5069962;28;20032;-72
2024/01/31 08:36:28;;;;;;;27.75;11.25;;;;;;;5.66;100.00;103337.81;5071055;28;20077;-72
2024/01/31 08:38:53;;;;;;;28.73;11.85;;;;;;;5.71;100.00;103336.56;5071568;28;20044;-71
2024/01/31 08:41:19;;;;;;;24.50;11.63;;;;;;;5.70;100.00;103337.50;5071329;28;20043;-72
2024/01/31 08:43:45;;;;;;;26.00;12.15;;;;;;;5.72;100.00;103334.75;5070053;28;20071;-72
2024/01/31 08:46:11;;;;;;;32.13;14.23;;;;;;;5.72;100.00;103329.47;5071480;28;20040;-72
2024/01/31 08:48:38;;;;;;;25.63;11.73;;;;;;;5.75;100.00;103331.06;5071067;28;20929;-72
2024/01/31 08:51:05;;;;;;;28.98;12.68;;;;;;;5.74;100.00;103316.09;5070988;28;20143;-72
2024/01/31 08:53:30;;;;;;;28.92;11.68;;;;;;;5.79;100.00;103322.81;5071042;28;20383;-71
2024/01/31 08:55:56;;;;;;;23.92;10.77;;;;;;;5.86;100.00;103328.50;5069971;28;20068;-72
2024/01/31 08:58:22;;;;;;;27.92;11.00;;;;;;;5.89;100.00;103325.66;5071079;28;20654;-72
2024/01/31 09:00:47;;;;;;;25.52;11.88;;;;;;;5.89;100.00;103317.72;5070942;28;20037;-72
2024/01/31 09:03:13;;;;;;;21.95;10.20;;;;;;;5.89;100.00;103308.00;5070931;28;20609;-72
2024/01/31 09:05:38;;;;;;;25.50;10.30;;;;;;;5.96;100.00;103305.78;5069374;28;20441;-72
2024/01/31 09:08:03;;;;;;;24.80;10.05;;;;;;;6.00;100.00;103301.09;5070829;28;20028;-72
2024/01/31 09:10:29;;;;;;;26.45;11.18;;;;;;;6.03;100.00;103292.97;5069480;28;20029;-71
2024/01/31 09:12:54;;;;;;;23.95;10.35;;;;;;;6.09;100.00;103293.38;5068489;28;20026;-72
2024/01/31 09:15:20;;;;;;;24.13;9.05;;;;;;;6.15;100.00;103286.81;5067347;28;20067;-72
2024/01/31 09:17:46;;;;;;;28.10;12.40;;;;;;;6.24;100.00;103291.47;5068733;28;20036;-72
2024/01/31 09:20:11;;;;;;;25.88;11.65;;;;;;;6.27;100.00;103285.94;5068488;28;20028;-73
2024/01/31 09:22:38;;;;;;;27.75;10.65;;;;;;;6.31;100.00;103281.25;5067320;28;20115;-72
2024/01/31 09:25:04;;;;;;;30.42;11.93;;;;;;;6.33;100.00;103280.19;5068267;28;20502;-72
2024/01/31 09:27:30;;;;;;;24.45;9.88;;;;;;;6.36;100.00;103279.13;5068451;28;20495;-71
2024/01/31 09:29:55;;;;;;;27.23;11.70;;;;;;;6.38;100.00;103276.38;5068454;28;20035;-72
2024/01/31 09:32:21;;;;;;;25.88;10.48;;;;;;;6.41;100.00;103273.53;5068582;28;20039;-73
2024/01/31 09:34:46;;;;;;;26.98;9.15;;;;;;;6.41;100.00;103265.56;5068453;28;20035;-73
2024/01/31 09:37:12;;;;;;;24.45;9.88;;;;;;;6.37;100.00;103257.00;5068268;28;20032;-77
2024/01/31 09:39:37;;;;;;;23.02;9.65;;;;;;;6.45;100.00;103257.28;5068067;28;20101;-77
2024/01/31 09:42:02;;;;;;;24.70;9.98;;;;;;;6.46;100.00;103263.44;5066431;28;20044;-79
2024/01/31 09:44:29;;;;;;;26.38;10.95;;;;;;;6.49;100.00;103269.34;5068830;28;20075;-75
2024/01/31 09:46:56;;;;;;;27.17;11.27;;;;;;;6.43;100.00;103250.41;5068003;28;20983;-76
2024/01/31 09:49:21;;;;;;;26.30;11.25;;;;;;;6.58;100.00;103257.25;5067571;28;20135;-78
2024/01/31 09:51:47;;;;;;;26.98;11.88;;;;;;;6.61;100.00;103241.13;5068008;28;20435;-77
2024/01/31 09:54:13;;;;;;;29.05;12.65;;;;;;;6.66;100.00;103238.16;5066650;28;20484;-81
2024/01/31 09:56:39;;;;;;;28.35;11.30;;;;;;;6.71;100.00;103244.81;5068361;28;20494;-76
2024/01/31 09:59:05;;;;;;;27.63;12.30;;;;;;;6.77;100.00;103243.50;5067916;28;20111;-77
2024/01/31 10:01:31;;;;;;;28.80;12.25;;;;;;;6.85;100.00;103250.91;5065936;28;20039;-77
2024/01/31 10:03:57;;;;;;;29.73;12.95;;;;;;;6.88;100.00;103248.84;5068030;28;20368;-76
2024/01/31 10:06:24;;;;;;;30.02;13.60;;;;;;;6.91;100.00;103251.28;5067879;28;20033;-76
2024/01/31 10:08:50;;;;;;;31.27;12.80;;;;;;;6.94;100.00;103259.03;5067621;28;20036;-76
2024/01/31 10:11:15;;;;;;;31.10;12.48;;;;;;;6.96;100.00;103250.94;5067382;28;20032;-76
2024/01/31 10:13:40;;;;;;;29.50;13.75;;;;;;;7.01;100.00;103265.56;5066462;28;20032;-76
2024/01/31 10:16:06;;;;;;;31.10;13.60;;;;;;;7.01;100.00;103268.22;5066075;28;20036;-77
2024/01/31 10:18:31;;;;;;;29.45;14.10;;;;;;;7.06;100.00;103267.03;5065822;28;20503;-78
2024/01/31 10:20:57;;;;;;;31.73;13.30;;;;;;;7.09;100.00;103270.28;5049677;28;20056;-76
2024/01/31 10:23:23;;;;;;;27.88;11.95;;;;;;;7.00;100.00;103261.22;5067782;28;20037;-76
2024/01/31 10:25:50;;;;;;;28.98;12.77;;;;;;;7.07;100.00;103271.38;5067676;28;20081;-76
2024/01/31 10:28:19;;;;;;;31.58;13.43;;;;;;;7.07;100.00;103271.38;5066060;28;20055;-75
2024/01/31 10:30:45;;;;;;;30.17;12.18;;;;;;;7.08;100.00;103275.72;5049486;28;20056;-76
2024/01/31 10:33:12;;;;;;;29.50;12.98;;;;;;;7.10;100.00;103279.97;5066822;28;20529;-76
2024/01/31 10:35:39;;;;;;;29.88;12.82;;;;;;;7.11;100.00;103264.88;5067857;28;20028;-76
2024/01/31 10:38:07;;;;;;;27.15;12.20;;;;;;;7.09;100.00;103264.16;5067485;28;20127;-76
2024/01/31 10:40:34;;;;;;;25.35;11.90;;;;;;;7.05;100.00;103267.97;5065784;28;20032;-75
2024/01/31 10:43:02;;;;;;;31.00;12.20;;;;;;;6.98;100.00;103271.09;5067444;28;20055;-77
2024/01/31 10:45:30;;;;;;;28.73;13.05;;;;;;;6.91;100.00;103261.03;5067401;28;20100;-77
2024/01/31 10:47:56;;;;;;;31.50;14.15;;;;;;;6.92;100.00;103276.88;5067278;28;20035;-76
2024/01/31 10:50:21;;;;;;;26.60;11.52;;;;;;;6.96;100.00;103280.13;5067192;28;20045;-77
2024/01/31 10:52:48;;;;;;;26.20;13.05;;;;;;;6.98;100.00;103281.72;5067206;28;20483;-78
2024/01/31 10:55:14;;;;;;;25.35;10.30;;;;;;;6.96;100.00;103270.34;5065596;28;20551;-77
2024/01/31 10:57:42;;;;;;;27.13;11.15;;;;;;;6.97;100.00;103266.75;5049636;28;20977;-77
2024/01/31 11:00:22;;;;;;;25.75;10.10;;;;;;;7.00;100.00;103260.38;5066405;28;20028;-77
2024/01/31 11:02:48;;;;;;;27.30;12.05;;;;;;;7.03;100.00;103266.28;5067103;28;20036;-77
2024/01/31 11:05:15;;;;;;;24.13;10.40;;;;;;;7.06;100.00;103261.72;5067091;28;20581;-77
2024/01/31 11:07:45;;;;;;;22.85;9.85;;;;;;;7.04;100.00;103248.56;5049297;28;20364;-76
2024/01/31 11:10:23;;;;;;;23.13;9.57;;;;;;;7.03;100.00;103238.91;5067337;28;20476;-77
2024/01/31 11:13:00;;;;;;;23.30;9.25;;;;;;;7.07;100.00;103239.53;5065425;28;20488;-77